Time;durP1;ratioP1;P1;durP2;ratioP2;P2;SDS_P1;SDS_P2;PMS_P1;PMS_P2;Temp;Humidity;BMP_temperature;BMP_pressure;BME280_temperature;BME280_humidity;BME280_pressure;Samples;Min_cycle;Max_cycle;Signal;HPM_P1;HPM_P2
2023/01/14 00:01:17;;;;;;;10.38;3.17;;;;;;;4.70;62.34;100435.16;4890293;29;20493;-71
2023/01/14 00:03:45;;;;;;;7.88;1.92;;;;;;;4.64;62.69;100436.50;4916641;29;20059;-70
2023/01/14 00:06:14;;;;;;;10.55;1.75;;;;;;;4.68;62.53;100429.94;4918884;29;20143;-70
2023/01/14 00:08:41;;;;;;;7.38;1.63;;;;;;;4.58;62.85;100443.16;4919336;29;20134;-70
2023/01/14 00:11:09;;;;;;;14.27;2.28;;;;;;;4.60;63.15;100443.06;4917170;29;20127;-70
2023/01/14 00:13:38;;;;;;;15.75;2.03;;;;;;;4.68;62.91;100443.25;4916221;29;20497;-69
2023/01/14 00:16:07;;;;;;;7.72;1.52;;;;;;;4.54;63.35;100446.22;4916589;29;20052;-71
2023/01/14 00:18:34;;;;;;;11.43;2.33;;;;;;;4.66;63.39;100446.97;4916442;29;20056;-70
2023/01/14 00:21:05;;;;;;;11.20;1.73;;;;;;;4.61;63.68;100450.03;4916335;29;20048;-70
2023/01/14 00:23:34;;;;;;;8.70;2.15;;;;;;;4.42;64.22;100447.25;4916215;29;20044;-70
2023/01/14 00:26:12;;;;;;;22.13;2.47;;;;;;;4.40;64.20;100460.63;4916770;29;20051;-70
2023/01/14 00:28:39;;;;;;;8.00;1.70;;;;;;;4.45;64.03;100454.94;4916000;29;20075;-70
2023/01/14 00:31:15;;;;;;;13.32;2.22;;;;;;;4.48;63.81;100458.19;4915340;29;20054;-70
2023/01/14 00:33:42;;;;;;;10.73;1.95;;;;;;;4.39;64.29;100458.13;4915426;29;20071;-70
2023/01/14 00:36:12;;;;;;;9.35;1.35;;;;;;;4.45;63.71;100460.25;4915733;29;20052;-70
2023/01/14 00:38:39;;;;;;;14.95;2.28;;;;;;;4.61;63.39;100463.31;4901822;29;20049;-70
2023/01/14 00:41:12;;;;;;;9.00;1.77;;;;;;;4.63;63.28;100461.41;4907553;29;20386;-70
2023/01/14 00:43:41;;;;;;;6.72;1.55;;;;;;;4.63;63.17;100461.41;4919834;29;20135;-70
2023/01/14 00:46:11;;;;;;;6.28;1.63;;;;;;;4.64;63.28;100479.00;4919318;29;20059;-70
2023/01/14 00:48:38;;;;;;;6.00;1.10;;;;;;;4.64;63.08;100472.88;4918652;29;20111;-70
2023/01/14 00:51:05;;;;;;;6.80;1.45;;;;;;;4.58;63.12;100474.19;4918765;29;20044;-70
2023/01/14 00:53:32;;;;;;;11.52;1.90;;;;;;;4.58;63.38;100493.63;4919750;29;20107;-69
2023/01/14 00:55:59;;;;;;;6.07;1.50;;;;;;;4.62;63.21;100480.94;4920405;29;20139;-70
2023/01/14 00:58:25;;;;;;;5.63;1.30;;;;;;;4.86;62.46;100499.31;4920121;29;20044;-69
2023/01/14 01:00:53;;;;;;;11.48;2.45;;;;;;;4.94;62.49;100504.84;4918262;29;20726;-69
2023/01/14 01:03:21;;;;;;;7.53;1.52;;;;;;;4.74;62.63;100503.84;4919606;29;20145;-70
2023/01/14 01:05:48;;;;;;;11.98;1.73;;;;;;;4.66;63.33;100508.97;4900546;29;20048;-70
2023/01/14 01:08:17;;;;;;;7.80;1.65;;;;;;;4.77;63.07;100513.38;4900381;29;20049;-70
2023/01/14 01:10:45;;;;;;;10.50;1.80;;;;;;;4.86;62.70;100517.09;4899892;29;20052;-70
2023/01/14 01:13:12;;;;;;;7.57;1.92;;;;;;;4.89;62.83;100514.16;4900030;29;20055;-70
2023/01/14 01:15:40;;;;;;;2.85;1.17;;;;;;;5.08;62.38;100522.28;4899577;29;20052;-70
2023/01/14 01:18:08;;;;;;;8.00;2.00;;;;;;;4.85;63.00;100518.91;4899502;29;20059;-71
2023/01/14 01:20:36;;;;;;;8.65;2.38;;;;;;;4.87;62.73;100518.75;4899252;29;20048;-71
2023/01/14 01:23:03;;;;;;;5.20;1.50;;;;;;;5.02;62.87;100514.84;4898740;29;20045;-71
2023/01/14 01:25:30;;;;;;;8.13;2.13;;;;;;;4.87;62.97;100519.63;4899946;29;20068;-70
2023/01/14 01:27:57;;;;;;;8.50;1.75;;;;;;;5.01;62.86;100521.13;4900383;29;20041;-71
2023/01/14 01:30:24;;;;;;;8.77;1.85;;;;;;;4.84;63.36;100517.22;4899272;29;20076;-69
2023/01/14 01:32:52;;;;;;;5.80;1.58;;;;;;;4.91;63.27;100518.41;4899363;29;20120;-71
2023/01/14 01:35:19;;;;;;;7.85;1.90;;;;;;;5.16;62.64;100522.47;4898709;29;20048;-69
2023/01/14 01:37:45;;;;;;;11.77;1.83;;;;;;;5.11;62.86;100527.38;4899874;29;20057;-70
2023/01/14 01:40:12;;;;;;;8.43;1.88;;;;;;;4.81;63.69;100528.09;4900482;29;20072;-70
2023/01/14 01:42:54;;;;;;;7.78;1.30;;;;;;;4.86;63.74;100533.03;4899876;29;20057;-70
2023/01/14 01:45:27;;;;;;;5.65;1.75;;;;;;;4.98;63.62;100532.03;4899401;29;20120;-69
2023/01/14 01:47:59;;;;;;;6.82;1.60;;;;;;;4.89;64.25;100525.63;4899336;29;20060;-70
2023/01/14 01:50:26;;;;;;;9.70;1.65;;;;;;;4.92;64.64;100530.69;4899698;29;20055;-70
2023/01/14 01:52:52;;;;;;;12.20;2.92;;;;;;;4.93;64.45;100547.50;4900589;29;20049;-70
2023/01/14 01:55:20;;;;;;;8.80;2.45;;;;;;;4.89;64.41;100538.94;4900090;29;20478;-70
2023/01/14 01:57:55;;;;;;;10.77;2.25;;;;;;;4.77;64.38;100535.50;4899304;29;20084;-69
2023/01/14 02:00:24;;;;;;;11.45;2.53;;;;;;;5.01;63.89;100537.09;4899684;29;20056;-70
2023/01/14 02:02:58;;;;;;;14.52;3.60;;;;;;;4.87;63.86;100542.69;4899503;29;20052;-70
2023/01/14 02:09:13;;;;;;;7.93;1.42;;;;;;;4.96;63.48;100552.56;4916945;29;20116;-70
2023/01/14 02:12:25;;;;;;;8.00;1.85;;;;;;;5.14;62.94;100548.34;4917069;29;20059;-70
2023/01/14 02:15:22;;;;;;;11.20;1.70;;;;;;;5.20;62.41;100552.31;4917657;29;20060;-70
2023/01/14 02:18:01;;;;;;;5.85;1.40;;;;;;;5.04;62.67;100558.09;4917391;29;20059;-71
2023/01/14 02:20:40;;;;;;;5.95;1.23;;;;;;;5.25;62.84;100566.94;4916112;29;20067;-70
2023/01/14 02:23:25;;;;;;;9.15;1.80;;;;;;;5.34;63.24;100572.44;4915979;29;20127;-70
2023/01/14 02:26:19;;;;;;;11.82;2.25;;;;;;;5.34;63.07;100573.28;4916406;29;21391;-70
2023/01/14 02:29:10;;;;;;;7.72;1.67;;;;;;;5.17;63.83;100574.69;4890793;29;20049;-70
2023/01/14 02:32:08;;;;;;;14.27;2.00;;;;;;;5.02;64.69;100579.47;4880497;29;20063;-70
2023/01/14 02:34:44;;;;;;;14.25;1.92;;;;;;;5.07;65.19;100588.88;4880014;29;20409;-70
2023/01/14 02:37:28;;;;;;;5.05;1.50;;;;;;;4.88;66.08;100593.06;4916367;29;20052;-70
2023/01/14 02:40:04;;;;;;;9.45;2.50;;;;;;;5.03;66.05;100596.28;4915938;29;20048;-70
2023/01/14 02:45:47;;;;;;;28.10;13.57;;;;;;;4.84;66.14;100585.50;4917370;29;20059;-71
2023/01/14 02:48:17;;;;;;;29.58;11.75;;;;;;;4.85;66.01;100592.50;4916617;29;20560;-69
2023/01/14 02:50:44;;;;;;;13.68;2.75;;;;;;;4.68;65.64;100599.19;4916975;29;20056;-71
2023/01/14 02:53:14;;;;;;;14.23;2.38;;;;;;;4.88;65.34;100600.22;4916244;29;20489;-71
2023/01/14 02:55:41;;;;;;;7.00;1.57;;;;;;;4.82;65.48;100607.69;4916533;29;20056;-70
2023/01/14 02:58:38;;;;;;;11.13;1.60;;;;;;;4.96;64.90;100600.41;4916077;29;20048;-70
2023/01/14 03:01:15;;;;;;;9.43;1.90;;;;;;;4.71;64.97;100602.44;4915686;29;20052;-70
2023/01/14 03:03:57;;;;;;;6.20;1.58;;;;;;;4.75;64.77;100609.19;4915747;29;20473;-71
2023/01/14 03:06:35;;;;;;;7.18;2.10;;;;;;;5.00;64.29;100605.34;4916048;29;20055;-70
2023/01/14 03:09:14;;;;;;;7.13;1.27;;;;;;;4.97;64.39;100602.97;4916021;29;20139;-71
2023/01/14 03:12:07;;;;;;;9.50;2.00;;;;;;;4.85;64.92;100608.44;4914771;29;20048;-71
2023/01/14 03:15:00;;;;;;;6.28;1.38;;;;;;;4.91;64.58;100616.75;4915251;29;20052;-70
2023/01/14 03:17:52;;;;;;;5.78;1.38;;;;;;;4.88;64.52;100613.50;4915209;29;20048;-69
2023/01/14 03:20:24;;;;;;;7.47;1.50;;;;;;;4.75;64.94;100617.16;4915040;29;20044;-70
2023/01/14 03:22:52;;;;;;;8.55;1.52;;;;;;;4.90;64.34;100624.84;4915892;29;20067;-70
2023/01/14 03:25:21;;;;;;;7.57;1.45;;;;;;;5.13;63.59;100629.09;4915808;29;20075;-70
2023/01/14 03:27:49;;;;;;;10.50;1.70;;;;;;;5.09;64.17;100625.03;4914854;29;20091;-70
2023/01/14 03:30:25;;;;;;;8.68;1.67;;;;;;;5.01;64.42;100641.63;4915320;29;20417;-70
2023/01/14 03:33:00;;;;;;;6.10;1.27;;;;;;;4.95;64.46;100642.09;4905744;29;20528;-71
2023/01/14 03:35:33;;;;;;;5.47;1.25;;;;;;;4.95;64.38;100641.28;4913545;29;20047;-71
2023/01/14 03:38:10;;;;;;;5.72;1.50;;;;;;;5.15;63.75;100647.63;4915890;29;20052;-70
2023/01/14 03:40:39;;;;;;;9.10;1.80;;;;;;;5.03;64.00;100647.63;4914913;29;20131;-70
2023/01/14 03:43:31;;;;;;;5.93;1.60;;;;;;;5.02;64.06;100639.78;4914885;29;20494;-70
2023/01/14 03:45:58;;;;;;;7.63;1.67;;;;;;;5.02;64.19;100639.78;4905077;29;20052;-70
2023/01/14 03:48:25;;;;;;;14.93;2.33;;;;;;;5.03;64.03;100646.78;4914736;29;20071;-70
2023/01/14 03:51:16;;;;;;;12.93;2.15;;;;;;;4.86;64.40;100647.31;4915226;29;20052;-70
2023/01/14 03:53:53;;;;;;;9.25;1.52;;;;;;;5.05;64.53;100643.03;4915187;29;20055;-71
2023/01/14 03:56:34;;;;;;;12.20;2.47;;;;;;;5.02;64.42;100643.28;4915599;29;20070;-70
2023/01/14 03:59:11;;;;;;;6.90;1.90;;;;;;;4.95;64.79;100657.22;4916475;29;20048;-71
2023/01/14 04:02:09;;;;;;;13.45;3.60;;;;;;;5.04;64.65;100659.13;4917659;29;20079;-71
2023/01/14 04:04:36;;;;;;;8.48;2.20;;;;;;;4.88;65.55;100666.66;4901206;29;20123;-71
2023/01/14 04:07:03;;;;;;;12.55;2.63;;;;;;;4.88;65.49;100653.38;4917418;29;20482;-71
2023/01/14 04:09:29;;;;;;;14.55;2.15;;;;;;;4.91;65.64;100656.63;4918235;29;20497;-71
2023/01/14 04:11:56;;;;;;;10.73;2.35;;;;;;;4.90;65.70;100660.25;4917280;29;20517;-70
2023/01/14 04:17:07;;;;;;;8.35;2.25;;;;;;;4.92;65.12;100668.94;4921099;29;20103;-71
2023/01/14 04:19:34;;;;;;;9.40;1.88;;;;;;;5.04;64.85;100667.13;4919562;29;20052;-71
2023/01/14 04:22:00;;;;;;;5.78;1.75;;;;;;;4.89;65.29;100668.34;4919901;29;20083;-70
2023/01/14 04:24:27;;;;;;;6.95;1.95;;;;;;;4.67;65.96;100670.09;4902867;29;20075;-71
2023/01/14 04:26:53;;;;;;;11.40;2.30;;;;;;;4.72;65.94;100672.38;4919151;29;20052;-71
2023/01/14 04:29:20;;;;;;;8.10;1.60;;;;;;;4.72;66.04;100667.88;4919670;29;20070;-71
2023/01/14 04:31:46;;;;;;;9.00;1.65;;;;;;;4.72;66.06;100665.22;4919943;29;20056;-71
2023/01/14 04:34:13;;;;;;;16.05;2.45;;;;;;;4.69;65.95;100684.06;4902965;29;20048;-71
2023/01/14 04:36:40;;;;;;;8.57;2.15;;;;;;;4.89;65.51;100674.50;4920328;29;20395;-71
2023/01/14 04:39:06;;;;;;;8.00;1.40;;;;;;;4.84;65.74;100681.19;4919862;29;20050;-71
2023/01/14 04:44:18;;;;;;;11.00;2.47;;;;;;;4.81;65.30;100683.09;4919561;29;20044;-71
2023/01/14 04:46:44;;;;;;;10.45;1.73;;;;;;;4.84;64.93;100673.22;4918708;29;20497;-70
2023/01/14 04:49:11;;;;;;;6.75;1.60;;;;;;;4.82;64.82;100676.81;4919066;29;20127;-71
2023/01/14 04:51:37;;;;;;;8.43;1.80;;;;;;;4.91;64.44;100682.38;4898193;29;20040;-71
2023/01/14 04:54:04;;;;;;;9.18;1.67;;;;;;;4.95;64.25;100684.66;4914424;29;20383;-71
2023/01/14 04:56:30;;;;;;;10.93;1.92;;;;;;;4.72;64.45;100691.81;4918942;29;20068;-71
2023/01/14 04:59:02;;;;;;;14.70;2.33;;;;;;;5.02;64.08;100690.31;4918641;29;20107;-70
2023/01/14 05:01:30;;;;;;;11.45;2.08;;;;;;;4.82;64.55;100702.56;4918694;29;20051;-71
2023/01/14 05:04:00;;;;;;;7.60;1.80;;;;;;;4.87;64.36;100703.03;4918097;29;20135;-72
2023/01/14 05:06:28;;;;;;;8.27;1.73;;;;;;;4.80;64.49;100707.16;4919604;29;20119;-71
2023/01/14 05:08:55;;;;;;;7.03;1.35;;;;;;;5.00;64.07;100703.72;4918741;29;20505;-72
2023/01/14 05:11:21;;;;;;;5.60;1.40;;;;;;;4.91;63.75;100704.47;4918452;29;20051;-71
2023/01/14 05:13:48;;;;;;;8.85;1.73;;;;;;;4.93;63.99;100697.19;4918410;29;20052;-72
2023/01/14 05:16:17;;;;;;;15.23;2.30;;;;;;;4.77;64.08;100710.91;4918250;29;20134;-71
2023/01/14 05:18:44;;;;;;;9.00;1.65;;;;;;;4.77;64.42;100705.59;4917986;29;20048;-70
2023/01/14 05:21:10;;;;;;;8.80;1.52;;;;;;;4.87;63.96;100718.13;4919020;29;20044;-71
2023/01/14 05:23:38;;;;;;;17.33;1.67;;;;;;;4.83;63.95;100717.53;4918342;29;20055;-71
2023/01/14 05:26:05;;;;;;;10.07;2.03;;;;;;;4.85;63.80;100720.06;4917063;29;20095;-70
2023/01/14 05:28:32;;;;;;;7.45;1.98;;;;;;;4.85;63.78;100722.72;4918133;29;20052;-71
2023/01/14 05:30:58;;;;;;;5.68;1.33;;;;;;;4.80;63.97;100715.97;4917939;29;20564;-71
2023/01/14 05:33:25;;;;;;;8.68;1.35;;;;;;;4.92;63.83;100721.28;4901360;29;20056;-71
2023/01/14 05:35:56;;;;;;;6.40;1.33;;;;;;;4.79;64.30;100730.22;4918296;29;20048;-71
2023/01/14 05:38:23;;;;;;;9.50;1.47;;;;;;;4.93;63.69;100723.78;4917306;29;20055;-71
2023/01/14 05:40:50;;;;;;;7.80;1.95;;;;;;;4.66;64.00;100732.19;4918207;29;20135;-71
2023/01/14 05:46:05;;;;;;;7.70;1.85;;;;;;;4.82;63.88;100732.63;4918034;29;20052;-71
2023/01/14 05:48:33;;;;;;;5.53;0.90;;;;;;;5.03;63.16;100730.06;4917823;29;20058;-71
2023/01/14 05:51:02;;;;;;;9.82;1.92;;;;;;;4.91;63.49;100720.44;4919431;29;20115;-70
2023/01/14 05:53:28;;;;;;;6.90;1.80;;;;;;;4.90;63.40;100723.19;4916965;29;20055;-71
2023/01/14 05:55:57;;;;;;;7.85;1.30;;;;;;;4.85;63.46;100738.69;4917422;29;20553;-72
2023/01/14 05:58:24;;;;;;;12.60;1.85;;;;;;;4.69;63.55;100739.88;4917543;29;20048;-71
2023/01/14 06:06:27;;;;;;;7.93;1.33;;;;;;;4.94;62.89;100748.59;4917122;29;20512;-70
2023/01/14 06:08:57;;;;;;;6.75;1.52;;;;;;;4.94;63.07;100745.94;4917713;29;20123;-71
2023/01/14 06:11:25;;;;;;;13.05;2.70;;;;;;;4.89;63.05;100742.78;4917463;29;20044;-71
2023/01/14 06:13:56;;;;;;;8.02;1.70;;;;;;;4.67;63.27;100755.13;4918785;29;20076;-71
2023/01/14 06:16:27;;;;;;;8.55;1.90;;;;;;;5.07;62.57;100751.91;4916696;29;20051;-71
2023/01/14 06:18:55;;;;;;;9.10;1.65;;;;;;;4.82;63.00;100755.72;4917961;29;20052;-71
2023/01/14 06:21:27;;;;;;;8.60;1.85;;;;;;;4.87;62.90;100756.22;4918248;29;20083;-71
2023/01/14 06:23:53;;;;;;;;;;;;;;;4.82;63.25;100758.38;4919444;29;20054;-70
2023/01/14 06:26:21;;;;;;;6.65;1.98;;;;;;;4.66;63.76;100764.06;4917277;29;20005;-71
2023/01/14 06:28:47;;;;;;;8.40;1.77;;;;;;;4.76;63.86;100769.47;4916555;29;20112;-70
2023/01/14 06:31:16;;;;;;;6.97;1.50;;;;;;;4.81;64.23;100773.47;4917305;29;20478;-71
2023/01/14 06:33:44;;;;;;;6.20;1.52;;;;;;;4.94;63.83;100772.50;4914272;29;20059;-70
2023/01/14 06:36:13;;;;;;;14.70;2.88;;;;;;;4.79;65.05;100772.75;4917270;29;20185;-70
2023/01/14 06:38:40;;;;;;;10.88;2.28;;;;;;;4.80;65.81;100763.81;4916692;29;20048;-70
2023/01/14 06:41:09;;;;;;;10.23;2.00;;;;;;;4.86;65.91;100761.63;4917647;29;20048;-70
2023/01/14 06:43:35;;;;;;;9.70;1.95;;;;;;;4.72;66.44;100763.56;4917339;29;20048;-70
2023/01/14 06:46:03;;;;;;;10.80;2.08;;;;;;;4.57;66.85;100765.63;4914152;29;20056;-71
2023/01/14 06:48:29;;;;;;;9.80;1.80;;;;;;;4.58;66.93;100779.75;4917676;29;20055;-70
2023/01/14 06:50:56;;;;;;;9.25;1.70;;;;;;;4.64;67.69;100771.31;4918846;29;20052;-70
2023/01/14 06:53:23;;;;;;;10.05;2.13;;;;;;;4.48;69.20;100771.66;4918280;29;20072;-70
2023/01/14 06:55:49;;;;;;;8.75;2.22;;;;;;;4.40;69.91;100771.41;4921912;29;20040;-70
2023/01/14 06:58:16;;;;;;;12.77;1.90;;;;;;;4.52;70.25;100772.25;4921610;29;20054;-70
2023/01/14 07:00:43;;;;;;;11.38;1.92;;;;;;;4.58;69.86;100771.78;4922974;29;20044;-70
2023/01/14 07:03:09;;;;;;;10.85;2.05;;;;;;;4.52;70.23;100767.81;4906315;29;20071;-70
2023/01/14 07:05:36;;;;;;;15.50;2.40;;;;;;;4.35;70.47;100773.56;4920783;29;20076;-71
2023/01/14 07:08:02;;;;;;;10.13;1.73;;;;;;;4.44;70.58;100777.31;4923605;29;20062;-70
2023/01/14 07:10:29;;;;;;;7.30;1.77;;;;;;;4.31;70.61;100783.56;4923199;29;20115;-70
2023/01/14 07:12:55;;;;;;;5.90;1.58;;;;;;;4.32;70.94;100779.94;4921766;29;20131;-70
2023/01/14 07:15:22;;;;;;;10.32;1.77;;;;;;;4.57;70.34;100784.22;4921685;29;20064;-70
2023/01/14 07:17:49;;;;;;;9.25;1.75;;;;;;;4.52;70.18;100783.75;4923858;29;20489;-71
2023/01/14 07:20:16;;;;;;;9.15;2.45;;;;;;;4.48;70.21;100776.97;4920944;29;20110;-70
2023/01/14 07:22:43;;;;;;;8.70;2.28;;;;;;;4.20;71.09;100788.84;4919600;29;20048;-71
2023/01/14 07:25:12;;;;;;;12.95;3.40;;;;;;;4.37;70.83;100779.56;4923772;29;20056;-71
2023/01/14 07:27:39;;;;;;;12.32;2.92;;;;;;;4.36;70.63;100774.41;4923236;29;20052;-70
2023/01/14 07:30:06;;;;;;;13.57;2.75;;;;;;;4.26;70.94;100776.91;4917389;29;20062;-71
2023/01/14 07:32:34;;;;;;;8.75;2.08;;;;;;;4.39;70.73;100776.84;4923839;29;20489;-71
2023/01/14 07:35:01;;;;;;;7.38;2.05;;;;;;;4.38;70.64;100780.44;4924469;29;20043;-71
2023/01/14 07:37:27;;;;;;;11.05;2.40;;;;;;;4.50;70.07;100768.88;4935033;29;20032;-71
2023/01/14 07:39:54;;;;;;;11.82;2.83;;;;;;;4.29;70.25;100774.88;4927858;29;20497;-71
2023/01/14 07:42:20;;;;;;;13.73;3.42;;;;;;;4.23;70.31;100766.53;4934176;29;20097;-72
2023/01/14 07:44:47;;;;;;;12.68;3.13;;;;;;;4.32;70.06;100763.16;4933326;29;20055;-71
2023/01/14 07:47:16;;;;;;;10.77;2.25;;;;;;;4.19;70.24;100776.53;4931898;29;20044;-72
2023/01/14 07:49:42;;;;;;;11.40;2.38;;;;;;;4.22;70.30;100776.31;4929505;29;20059;-71
2023/01/14 07:52:12;;;;;;;10.85;2.55;;;;;;;4.30;70.34;100768.56;4925769;29;20044;-71
2023/01/14 07:54:40;;;;;;;13.10;2.70;;;;;;;4.24;70.02;100765.53;4929327;29;20063;-72
2023/01/14 07:57:09;;;;;;;9.48;3.08;;;;;;;4.57;69.53;100770.09;4929439;29;20123;-71
2023/01/14 07:59:36;;;;;;;16.45;2.08;;;;;;;4.48;69.56;100762.84;4929020;29;20059;-72
2023/01/14 08:02:05;;;;;;;9.15;2.17;;;;;;;4.37;69.50;100762.81;4929269;29;20051;-71
2023/01/14 08:04:32;;;;;;;8.73;1.88;;;;;;;4.49;69.54;100776.00;4926008;29;20040;-72
2023/01/14 08:06:58;;;;;;;15.82;2.90;;;;;;;4.24;70.01;100777.03;4927630;29;20048;-71
2023/01/14 08:09:25;;;;;;;16.15;2.78;;;;;;;4.32;69.25;100779.94;4926336;29;20067;-71
2023/01/14 08:11:52;;;;;;;13.55;2.20;;;;;;;4.48;68.95;100770.81;4929588;29;20048;-72
2023/01/14 08:14:19;;;;;;;6.43;2.03;;;;;;;4.31;69.10;100764.97;4927596;29;20127;-71
2023/01/14 08:16:46;;;;;;;11.18;1.77;;;;;;;4.51;68.52;100773.22;4928117;29;20099;-72
2023/01/14 08:19:12;;;;;;;13.43;2.50;;;;;;;4.48;68.75;100776.97;4927400;29;20100;-72
2023/01/14 08:21:39;;;;;;;9.90;2.17;;;;;;;4.39;68.29;100766.22;4901359;29;20087;-71
2023/01/14 08:24:06;;;;;;;10.80;1.88;;;;;;;4.49;67.93;100762.72;4927349;29;20076;-71
2023/01/14 08:26:32;;;;;;;15.20;2.30;;;;;;;4.51;67.80;100760.78;4927384;29;20055;-73
2023/01/14 08:28:59;;;;;;;7.90;2.20;;;;;;;4.39;67.46;100755.59;4928034;29;20107;-72
2023/01/14 08:31:31;;;;;;;11.85;2.08;;;;;;;4.57;67.15;100752.34;4928092;29;20052;-71
2023/01/14 08:33:59;;;;;;;9.80;1.85;;;;;;;4.66;67.02;100752.56;4929686;29;20052;-72
2023/01/14 08:36:26;;;;;;;14.32;2.88;;;;;;;4.64;66.92;100755.34;4928818;29;20079;-71
2023/01/14 08:38:53;;;;;;;13.75;2.45;;;;;;;4.42;66.79;100753.56;4930398;29;20082;-71
2023/01/14 08:41:20;;;;;;;13.15;2.72;;;;;;;4.51;66.35;100750.16;4930638;29;20104;-71
2023/01/14 08:43:48;;;;;;;10.27;2.22;;;;;;;4.54;65.99;100755.22;4930412;29;20069;-71
2023/01/14 08:46:15;;;;;;;10.23;2.08;;;;;;;4.66;66.19;100753.44;4930418;29;20064;-72
2023/01/14 08:48:42;;;;;;;11.40;2.00;;;;;;;4.69;65.82;100758.47;4929885;29;20059;-71
2023/01/14 08:51:11;;;;;;;10.77;2.42;;;;;;;4.69;65.95;100768.28;4931415;29;20050;-71
2023/01/14 08:53:39;;;;;;;10.02;2.38;;;;;;;4.75;65.68;100762.47;4932128;29;20112;-71
2023/01/14 08:56:07;;;;;;;11.15;1.85;;;;;;;4.80;65.51;100766.47;4931980;29;20072;-72
2023/01/14 08:58:35;;;;;;;7.88;1.63;;;;;;;5.00;64.79;100764.03;4930477;29;20107;-72
2023/01/14 09:01:06;;;;;;;10.52;2.05;;;;;;;5.05;64.88;100759.19;4932179;29;20055;-72
2023/01/14 09:03:35;;;;;;;10.40;2.47;;;;;;;5.15;64.35;100756.66;4936013;29;20040;-71
2023/01/14 09:06:07;;;;;;;7.70;1.60;;;;;;;5.07;64.11;100761.72;4936090;29;20122;-70
2023/01/14 09:17:06;;;;;;;14.02;2.58;;;;;;;5.46;62.44;100762.97;4935651;29;20044;-71
2023/01/14 09:19:47;;;;;;;8.85;1.85;;;;;;;5.30;61.99;100771.34;4929944;29;20117;-70
2023/01/14 09:22:20;;;;;;;12.77;2.30;;;;;;;5.46;61.45;100768.28;4936064;29;20055;-71
2023/01/14 09:24:47;;;;;;;9.98;2.00;;;;;;;5.67;61.21;100761.19;4935021;29;20048;-71
2023/01/14 09:27:14;;;;;;;14.40;1.83;;;;;;;5.47;61.06;100762.84;4935656;29;20062;-71
2023/01/14 09:29:40;;;;;;;14.27;2.13;;;;;;;5.47;60.57;100767.31;4935468;29;20104;-71
2023/01/14 09:32:12;;;;;;;10.32;2.10;;;;;;;5.47;60.73;100762.00;4936330;29;20071;-72
2023/01/14 09:34:39;;;;;;;;;;;;;;;5.57;60.57;100764.75;4935639;29;20058;-71
2023/01/14 09:37:06;;;;;;;8.68;1.75;;;;;;;5.52;60.31;100770.44;4935076;29;19986;-72
2023/01/14 09:39:32;;;;;;;14.38;2.17;;;;;;;5.50;60.34;100759.91;4918982;29;20072;-71
2023/01/14 09:42:04;;;;;;;13.15;2.35;;;;;;;5.59;59.95;100763.63;4934657;29;20416;-71
2023/01/14 09:44:30;;;;;;;13.77;3.45;;;;;;;5.72;59.64;100758.97;4935106;29;20055;-71
2023/01/14 09:46:57;;;;;;;10.65;2.58;;;;;;;5.42;59.88;100749.06;4932896;29;20059;-71
2023/01/14 09:49:25;;;;;;;12.57;1.98;;;;;;;5.68;59.75;100740.75;4934106;29;20054;-72
2023/01/14 09:52:03;;;;;;;12.73;2.50;;;;;;;5.75;59.64;100736.59;4934827;29;20059;-72
2023/01/14 09:54:50;;;;;;;13.88;2.53;;;;;;;5.88;58.72;100731.94;4934350;29;20047;-72
2023/01/14 09:57:16;;;;;;;11.90;2.78;;;;;;;5.99;58.80;100736.34;4933777;29;20115;-72
2023/01/14 09:59:54;;;;;;;11.65;2.25;;;;;;;6.04;58.42;100722.63;4930098;29;20056;-72
2023/01/14 10:02:27;;;;;;;15.18;2.92;;;;;;;6.41;57.20;100715.00;4933876;29;20059;-72
2023/01/14 10:05:10;;;;;;;13.27;2.28;;;;;;;6.46;56.86;100710.16;4934390;29;20099;-72
2023/01/14 10:07:37;;;;;;;18.88;2.80;;;;;;;7.06;55.18;100708.34;4934438;29;20060;-72
2023/01/14 10:10:05;;;;;;;14.02;2.45;;;;;;;6.91;55.23;100699.91;4935813;29;20048;-72
2023/01/14 10:12:36;;;;;;;16.20;2.67;;;;;;;6.63;55.43;100695.31;4935009;29;20048;-72
2023/01/14 10:15:03;;;;;;;9.30;2.38;;;;;;;6.61;55.65;100687.47;4934022;29;20450;-72
2023/01/14 10:17:36;;;;;;;14.13;2.85;;;;;;;7.29;54.08;100692.94;4934615;29;20072;-72
2023/01/14 10:20:14;;;;;;;18.42;2.88;;;;;;;7.47;53.58;100685.06;4934483;29;20074;-71
2023/01/14 10:22:47;;;;;;;16.00;2.92;;;;;;;7.37;53.87;100684.22;4927056;29;20064;-72
2023/01/14 10:25:19;;;;;;;17.83;2.92;;;;;;;7.15;54.30;100678.19;4935303;29;20044;-73
2023/01/14 10:27:53;;;;;;;17.02;2.90;;;;;;;7.07;54.30;100672.69;4935626;29;20116;-71
2023/01/14 10:30:30;;;;;;;9.13;2.20;;;;;;;6.79;54.33;100657.47;4934679;29;20044;-72
2023/01/14 10:33:01;;;;;;;10.48;2.13;;;;;;;6.69;54.91;100665.44;4934640;29;20052;-72
2023/01/14 10:35:40;;;;;;;16.83;2.72;;;;;;;6.57;54.99;100664.72;4934555;29;20071;-71
2023/01/14 10:38:12;;;;;;;20.05;3.70;;;;;;;6.52;54.95;100656.28;4933103;29;20112;-72
2023/01/14 10:40:39;;;;;;;13.93;2.78;;;;;;;6.64;54.73;100662.38;4929551;29;20056;-72
2023/01/14 10:43:11;;;;;;;18.83;3.13;;;;;;;6.48;55.36;100649.53;4925463;29;20052;-72
2023/01/14 10:45:41;;;;;;;17.20;2.97;;;;;;;6.64;55.06;100649.03;4927720;29;20055;-71
2023/01/14 10:48:16;;;;;;;15.15;3.10;;;;;;;6.56;55.15;100641.69;4929163;29;20058;-70
2023/01/14 10:50:43;;;;;;;12.95;2.80;;;;;;;6.45;55.30;100639.16;4919799;29;20147;-72
2023/01/14 10:53:19;;;;;;;22.30;3.58;;;;;;;6.33;55.44;100630.44;4929646;29;20052;-72
2023/01/14 10:55:50;;;;;;;14.00;2.92;;;;;;;6.27;55.37;100632.78;4927718;29;20055;-71
2023/01/14 10:58:31;;;;;;;18.05;2.83;;;;;;;6.37;54.70;100620.34;4930094;29;20059;-71
2023/01/14 11:01:05;;;;;;;17.80;3.20;;;;;;;6.34;54.92;100620.59;4929925;29;20054;-71
2023/01/14 11:03:37;;;;;;;21.48;3.35;;;;;;;6.33;54.68;100618.94;4928516;29;20052;-72
2023/01/14 11:06:10;;;;;;;17.98;3.33;;;;;;;6.69;54.06;100620.97;4927256;29;20058;-71
2023/01/14 11:08:40;;;;;;;12.93;2.83;;;;;;;6.44;54.25;100616.16;4931115;29;20120;-72
2023/01/14 11:11:13;;;;;;;20.85;3.60;;;;;;;6.57;54.09;100602.59;4929433;29;20048;-72
2023/01/14 11:13:43;;;;;;;21.63;3.65;;;;;;;6.60;54.11;100594.28;4931411;29;20142;-71
2023/01/14 11:16:25;;;;;;;19.15;3.22;;;;;;;6.90;53.30;100601.34;4914421;29;20116;-71
2023/01/14 11:19:00;;;;;;;14.80;3.05;;;;;;;6.66;53.70;100599.91;4914398;29;20115;-72
2023/01/14 11:21:29;;;;;;;16.58;2.97;;;;;;;6.28;54.71;100586.50;4913104;29;20046;-72
2023/01/14 11:23:58;;;;;;;19.13;3.33;;;;;;;6.46;54.27;100603.53;4912172;29;20442;-71
2023/01/14 11:26:38;;;;;;;16.58;2.88;;;;;;;6.04;55.25;100587.63;4914174;29;20056;-71
2023/01/14 11:29:24;;;;;;;19.25;2.97;;;;;;;6.07;55.06;100573.22;4913229;29;20052;-71
2023/01/14 11:31:57;;;;;;;17.70;2.70;;;;;;;6.05;55.38;100568.03;4912973;29;20176;-71
2023/01/14 11:34:30;;;;;;;21.90;3.65;;;;;;;6.06;55.53;100556.41;4913793;29;20076;-73
2023/01/14 11:37:09;;;;;;;15.93;2.88;;;;;;;5.96;55.93;100550.19;4913915;29;20503;-73
2023/01/14 11:39:37;;;;;;;21.38;3.15;;;;;;;5.88;55.99;100550.03;4913262;29;20387;-73
2023/01/14 11:42:25;;;;;;;15.63;3.47;;;;;;;5.80;56.07;100555.16;4913890;29;20140;-71
2023/01/14 11:45:15;;;;;;;15.45;3.00;;;;;;;5.84;55.67;100537.97;4913474;29;20047;-71
2023/01/14 11:47:53;;;;;;;22.77;2.83;;;;;;;5.70;55.79;100537.34;4913525;29;20054;-71
2023/01/14 11:50:25;;;;;;;16.05;2.75;;;;;;;5.99;55.31;100533.97;4912524;29;20413;-72
2023/01/14 11:53:03;;;;;;;19.05;2.88;;;;;;;5.90;55.05;100526.75;4914517;29;20052;-72
2023/01/14 11:55:36;;;;;;;15.93;3.17;;;;;;;6.18;55.03;100514.50;4913758;29;20048;-71
2023/01/14 11:58:19;;;;;;;15.48;3.05;;;;;;;5.84;55.62;100508.69;4913618;29;20221;-71
2023/01/14 12:00:54;;;;;;;11.57;2.90;;;;;;;5.96;55.70;100504.94;4913795;29;20130;-72
2023/01/14 12:03:31;;;;;;;15.25;3.63;;;;;;;5.86;55.62;100501.41;4912490;29;20048;-71
2023/01/14 12:05:59;;;;;;;16.88;2.70;;;;;;;5.70;55.56;100489.44;4893637;29;20059;-71
2023/01/14 12:08:30;;;;;;;16.30;3.25;;;;;;;5.86;55.58;100493.41;4894685;29;20048;-71
2023/01/14 12:11:01;;;;;;;20.13;3.20;;;;;;;5.66;55.72;100481.84;4895088;29;20416;-71
2023/01/14 12:16:51;;;;;;;26.80;4.07;;;;;;;5.63;55.63;100466.13;4903865;29;20120;-71
2023/01/14 12:19:36;;;;;;;19.20;3.67;;;;;;;5.72;55.68;100452.03;4913152;29;20115;-70